Alyth, United Kingdom
Current Conditions -  °F | °C
As of 2:50 PM on Tuesday 21 Oct 2014 (Local Time) from EGPN Reporting Station
Rain Showers Rain Showers  
Wind Chill:   Ceiling: Unl
Heat Index:   Visibility: 6mi
Dew Point:   Wind: 25mph
Humidity: 57%   Direction: 290°WNW
Pressure: 29.5"   Gusts: 38mph
Location:  56.62°N, 3.23°W
Report Text: EGPN 211350Z 29022G33KT 240V340 9999 -SHRA FEW035 SCT045 09/01 Q0999
Loading
Personal Weather Stations






























Interactive Weather Map
Tropical Storm Tracking
New forecast layout! Learn more

10-Day Weather Forecast

Advertisements
Track Severe Weather on mobile